createdAt,value
2018-03-03T00:04:44.224Z,-0.20
2018-03-03T00:09:47.759Z,-0.40
2018-03-03T00:14:53.916Z,-0.50
2018-03-03T00:19:58.316Z,-0.50
2018-03-03T00:25:01.722Z,-0.20
2018-03-03T00:30:04.559Z,-0.30
2018-03-03T00:35:08.127Z,-0.10
2018-03-03T00:45:24.274Z,-0.10
2018-03-03T00:50:27.140Z,-0.20
2018-03-03T00:55:29.984Z,-0.10
2018-03-03T01:00:33.884Z,0.00
2018-03-03T01:05:37.664Z,-0.10
2018-03-03T01:10:43.680Z,0.00
2018-03-03T01:15:49.050Z,-0.10
2018-03-03T01:20:53.702Z,0.10
2018-03-03T01:25:57.086Z,0.00
2018-03-03T01:31:00.282Z,0.00
2018-03-03T01:36:03.396Z,-0.10
2018-03-03T01:41:06.303Z,0.00
2018-03-03T01:46:09.073Z,0.00
2018-03-03T01:51:23.853Z,-0.10
2018-03-03T01:56:27.205Z,-0.10
2018-03-03T02:01:30.417Z,-0.30
2018-03-03T02:06:33.227Z,-0.20
2018-03-03T02:11:36.055Z,-0.10
2018-03-03T02:16:39.591Z,-0.20
2018-03-03T02:21:42.757Z,-0.20
2018-03-03T02:26:47.062Z,-0.20
2018-03-03T02:31:50.537Z,-0.20
2018-03-03T02:36:53.680Z,-0.10
2018-03-03T02:41:56.798Z,-0.20
2018-03-03T02:47:00.425Z,-0.10
2018-03-03T02:52:03.951Z,-0.10
2018-03-03T02:57:06.765Z,0.00
2018-03-03T03:02:10.359Z,-0.10
2018-03-03T03:07:13.137Z,-0.10
2018-03-03T03:12:16.361Z,0.00
2018-03-03T03:17:19.204Z,-0.20
2018-03-03T03:22:23.155Z,-0.50
2018-03-03T03:27:26.439Z,-0.60
2018-03-03T03:32:29.501Z,-0.40
2018-03-03T03:37:33.394Z,-0.40
2018-03-03T03:42:36.194Z,-0.30
2018-03-03T03:53:12.828Z,-0.30
2018-03-03T03:58:16.348Z,-0.20
2018-03-03T04:03:22.421Z,-0.10
2018-03-03T04:14:02.066Z,-0.20
2018-03-03T04:19:06.878Z,-0.10
2018-03-03T04:24:09.733Z,-0.20
2018-03-03T04:29:12.828Z,-0.30
2018-03-03T04:34:15.620Z,-0.20
2018-03-03T04:39:18.956Z,-0.20
2018-03-03T04:44:21.811Z,-0.20
2018-03-03T04:49:24.633Z,-0.20
2018-03-03T04:54:30.075Z,-0.30
2018-03-03T04:59:35.328Z,-0.40
2018-03-03T05:04:43.683Z,-0.40
2018-03-03T05:09:46.757Z,-0.40
2018-03-03T05:14:58.243Z,-0.40
2018-03-03T05:20:07.023Z,-0.30
2018-03-03T05:25:15.720Z,-0.50
2018-03-03T05:41:43.489Z,-0.40
2018-03-03T05:58:25.746Z,-0.50
2018-03-03T06:03:46.004Z,-0.50
2018-03-03T06:08:50.770Z,-0.60
2018-03-03T06:13:54.023Z,-0.40
2018-03-03T06:18:59.508Z,-0.40
2018-03-03T06:24:02.520Z,-0.50
2018-03-03T06:29:05.320Z,-0.60
2018-03-03T06:34:08.191Z,-0.60
2018-03-03T06:39:11.344Z,-0.70
2018-03-03T06:44:15.330Z,-0.60
2018-03-03T09:25:06.649Z,0.90
2018-03-03T09:30:09.430Z,1.30
2018-03-03T09:35:16.034Z,1.80
2018-03-03T09:40:18.832Z,1.80
2018-03-03T09:45:25.195Z,2.00
2018-03-03T09:50:32.688Z,2.20
2018-03-03T09:55:35.574Z,2.00
2018-03-03T10:00:38.423Z,2.30
2018-03-03T10:05:42.663Z,2.30
2018-03-03T10:10:46.545Z,2.40
2018-03-03T10:15:49.890Z,2.70
2018-03-03T10:20:56.275Z,2.80
2018-03-03T10:25:59.160Z,2.90
2018-03-03T10:31:02.263Z,3.00
2018-03-03T10:36:08.514Z,3.10
2018-03-03T10:41:11.450Z,3.30
2018-03-03T10:46:14.231Z,3.50
2018-03-03T10:51:30.520Z,3.50
2018-03-03T10:56:34.987Z,3.40
2018-03-03T11:01:37.799Z,3.70
2018-03-03T11:06:40.736Z,3.50
2018-03-03T11:11:44.374Z,3.80
2018-03-03T11:16:49.016Z,3.70
2018-03-03T11:21:51.822Z,3.90
2018-03-03T11:26:55.130Z,4.00
2018-03-03T11:31:57.878Z,3.90
2018-03-03T11:37:00.724Z,4.00
2018-03-03T11:42:03.528Z,4.10
2018-03-03T11:47:07.001Z,4.40
2018-03-03T11:52:15.519Z,4.30
2018-03-03T11:57:18.753Z,4.30
2018-03-03T12:02:22.375Z,4.50
2018-03-03T12:07:26.067Z,4.70
2018-03-03T12:12:29.976Z,4.70
2018-03-03T12:17:34.027Z,5.00
2018-03-03T12:22:37.975Z,5.20
2018-03-03T12:27:42.392Z,5.30
2018-03-03T12:32:48.417Z,5.50
2018-03-03T12:37:51.883Z,5.50
2018-03-03T12:42:56.772Z,5.60
2018-03-03T12:47:59.675Z,5.70
2018-03-03T12:53:02.490Z,5.50
2018-03-03T12:58:06.508Z,6.00
2018-03-03T13:03:11.237Z,6.00
2018-03-03T13:08:14.117Z,5.90
2018-03-03T13:13:16.953Z,6.40
2018-03-03T13:18:20.824Z,6.80
2018-03-03T13:23:23.698Z,6.60
2018-03-03T13:28:26.571Z,6.50
2018-03-03T13:33:35.824Z,6.30
2018-03-03T13:38:42.703Z,6.20
2018-03-03T13:43:47.615Z,6.00
2018-03-03T13:48:50.600Z,6.20
2018-03-03T13:53:53.918Z,6.20
2018-03-03T13:58:57.051Z,6.40
2018-03-03T14:04:00.693Z,6.10
2018-03-03T14:09:03.607Z,6.00
2018-03-03T14:14:06.509Z,6.30
2018-03-03T14:19:09.337Z,6.40
2018-03-03T14:24:12.343Z,6.50
2018-03-03T14:29:15.169Z,6.30
2018-03-03T14:34:18.764Z,6.10
2018-03-03T14:39:21.866Z,6.10
2018-03-03T15:23:52.002Z,6.50
2018-03-03T15:28:55.294Z,6.60
2018-03-03T15:34:12.163Z,6.60
2018-03-03T15:39:15.435Z,6.60
2018-03-03T15:44:24.533Z,6.80
2018-03-03T15:49:28.585Z,6.60
2018-03-03T15:54:32.235Z,6.40
2018-03-03T15:59:35.081Z,6.10
2018-03-03T16:04:37.987Z,5.70
2018-03-03T16:09:40.839Z,5.40
2018-03-03T16:14:44.393Z,5.00
2018-03-03T16:19:47.228Z,4.90
2018-03-03T16:24:50.882Z,4.40
2018-03-03T16:29:53.710Z,4.30
2018-03-03T16:34:58.059Z,4.20
2018-03-03T16:40:00.987Z,4.00
2018-03-03T16:45:07.903Z,3.70
2018-03-03T16:50:13.462Z,3.60
2018-03-03T16:55:20.118Z,3.40
2018-03-03T17:00:25.820Z,3.30
2018-03-03T17:05:28.592Z,3.20
2018-03-03T17:10:31.444Z,3.10
2018-03-03T17:15:35.888Z,2.80
2018-03-03T17:20:38.747Z,2.60
2018-03-03T17:25:49.284Z,2.40
2018-03-03T17:36:31.566Z,2.30
2018-03-03T17:41:34.570Z,2.10
2018-03-03T17:46:40.149Z,1.80
2018-03-03T17:51:43.012Z,1.80
2018-03-03T17:56:46.361Z,1.70
2018-03-03T18:02:04.463Z,1.50
2018-03-03T18:07:18.128Z,1.40
2018-03-03T18:17:39.334Z,1.20
2018-03-03T18:22:44.229Z,1.10
2018-03-03T18:27:54.444Z,1.10
2018-03-03T18:38:48.470Z,1.00
2018-03-03T18:43:51.467Z,1.00
2018-03-03T18:48:54.338Z,1.00
2018-03-03T18:53:57.167Z,1.10
2018-03-03T18:58:59.957Z,1.10
2018-03-03T19:04:02.823Z,1.20
2018-03-03T19:09:05.714Z,1.20
2018-03-03T19:14:09.194Z,1.10
2018-03-03T19:19:12.039Z,1.20
2018-03-03T19:24:15.012Z,1.10
2018-03-03T19:29:26.540Z,1.20
2018-03-03T19:34:29.746Z,1.30
2018-03-03T19:39:39.452Z,1.30
2018-03-03T19:44:42.284Z,1.30
2018-03-03T19:49:46.006Z,1.40
2018-03-03T20:18:04.965Z,2.00
2018-03-03T20:23:12.078Z,2.00
2018-03-03T20:28:15.841Z,2.00
2018-03-03T20:33:20.236Z,2.20
2018-03-03T20:38:25.128Z,2.20
2018-03-03T20:43:30.917Z,2.20
2018-03-03T20:48:55.834Z,2.20
2018-03-03T20:54:03.438Z,2.20
2018-03-03T21:04:22.481Z,2.20
2018-03-03T21:09:25.430Z,2.30
2018-03-03T21:14:28.341Z,2.20
2018-03-03T21:19:34.162Z,2.30
2018-03-03T21:24:37.814Z,2.40
2018-03-03T21:29:56.996Z,2.30
2018-03-03T21:35:02.567Z,2.30
2018-03-03T21:40:07.092Z,2.40
2018-03-03T21:45:11.091Z,2.40
2018-03-03T21:50:14.713Z,2.40
2018-03-03T21:55:17.586Z,2.40
2018-03-03T22:00:25.075Z,2.40
2018-03-03T22:05:28.803Z,2.20
2018-03-03T22:10:31.728Z,2.10
2018-03-03T22:15:35.567Z,2.20
2018-03-03T22:20:39.476Z,2.10
2018-03-03T22:25:42.317Z,2.10
2018-03-03T22:30:47.411Z,2.00
2018-03-03T22:35:50.200Z,2.00
2018-03-03T22:40:55.053Z,2.10
2018-03-03T22:46:00.409Z,2.10
2018-03-03T22:51:04.249Z,1.90
2018-03-03T22:56:07.184Z,1.90
2018-03-03T23:01:10.736Z,2.10
2018-03-03T23:06:26.317Z,2.00
2018-03-03T23:11:29.450Z,2.00
2018-03-03T23:16:33.327Z,2.00
2018-03-03T23:21:38.491Z,2.10
2018-03-03T23:26:42.044Z,2.10
2018-03-03T23:31:44.850Z,2.00
2018-03-03T23:36:47.717Z,2.10
2018-03-03T23:41:51.534Z,2.20
2018-03-03T23:46:55.352Z,2.20
2018-03-03T23:51:59.138Z,2.40
2018-03-03T23:57:02.908Z,2.40
